Uricky, Kazakhstan
Current Conditions -  °F | °C
As of 2:00 PM on Thursday 27 Nov 2014 (Local Time) from UAUU Reporting Station
Clear Clear  
Wind Chill:   Ceiling: Unl
Heat Index: 16°   Visibility: 6mi
Dew Point:   Wind: 11mph
Humidity: 62%   Direction: 340°NNW
Pressure: 30.36"   Gusts: NA
Location:  53.32°N, 65.55°E
Report Text: UAUU 270800Z 34005MPS CAVOK M09/M15 Q1028 R33/CLRD60 NOSIG RMKQFE755/1007
Loading
Personal Weather Stations






























Interactive Weather Map New forecast layout! Learn more

10-Day Weather Forecast

Advertisements
Track Severe Weather on mobile